sensor_id;sensor_type;location;lat;lon;timestamp;P1;durP1;ratioP1;P2;durP2;ratioP2
26562;SDS011;14217;50.986;5.826;2023-07-24T00:00:10;0.30;;;0.30;;
26562;SDS011;14217;50.986;5.826;2023-07-24T00:05:12;0.45;;;0.40;;
26562;SDS011;14217;50.986;5.826;2023-07-24T00:10:14;0.40;;;0.30;;
26562;SDS011;14217;50.986;5.826;2023-07-24T00:15:16;0.80;;;0.40;;
26562;SDS011;14217;50.986;5.826;2023-07-24T00:20:18;0.57;;;0.40;;
26562;SDS011;14217;50.986;5.826;2023-07-24T00:25:20;0.38;;;0.38;;
26562;SDS011;14217;50.986;5.826;2023-07-24T00:30:22;0.52;;;0.38;;
26562;SDS011;14217;50.986;5.826;2023-07-24T00:35:24;0.70;;;0.50;;
26562;SDS011;14217;50.986;5.826;2023-07-24T00:40:27;0.95;;;0.57;;
26562;SDS011;14217;50.986;5.826;2023-07-24T00:45:29;0.73;;;0.70;;
26562;SDS011;14217;50.986;5.826;2023-07-24T00:50:31;0.57;;;0.30;;
26562;SDS011;14217;50.986;5.826;2023-07-24T00:55:34;0.70;;;0.30;;
26562;SDS011;14217;50.986;5.826;2023-07-24T01:00:37;0.90;;;0.65;;
26562;SDS011;14217;50.986;5.826;2023-07-24T01:05:39;0.32;;;0.32;;
26562;SDS011;14217;50.986;5.826;2023-07-24T01:10:42;0.30;;;0.30;;
26562;SDS011;14217;50.986;5.826;2023-07-24T01:21:04;0.82;;;0.50;;
26562;SDS011;14217;50.986;5.826;2023-07-24T01:26:10;1.80;;;0.60;;
26562;SDS011;14217;50.986;5.826;2023-07-24T01:31:12;0.68;;;0.43;;
26562;SDS011;14217;50.986;5.826;2023-07-24T01:36:15;0.50;;;0.50;;
26562;SDS011;14217;50.986;5.826;2023-07-24T01:41:17;1.80;;;0.50;;
26562;SDS011;14217;50.986;5.826;2023-07-24T01:46:20;1.02;;;0.52;;
26562;SDS011;14217;50.986;5.826;2023-07-24T01:51:22;18.10;;;0.70;;
26562;SDS011;14217;50.986;5.826;2023-07-24T01:56:24;0.57;;;0.57;;
26562;SDS011;14217;50.986;5.826;2023-07-24T02:01:26;5.63;;;0.50;;
26562;SDS011;14217;50.986;5.826;2023-07-24T02:06:28;0.82;;;0.50;;
26562;SDS011;14217;50.986;5.826;2023-07-24T02:11:31;0.65;;;0.60;;
26562;SDS011;14217;50.986;5.826;2023-07-24T02:16:33;0.30;;;0.30;;
26562;SDS011;14217;50.986;5.826;2023-07-24T02:21:35;0.45;;;0.45;;
26562;SDS011;14217;50.986;5.826;2023-07-24T02:26:37;0.52;;;0.52;;
26562;SDS011;14217;50.986;5.826;2023-07-24T02:31:39;1.38;;;0.70;;
26562;SDS011;14217;50.986;5.826;2023-07-24T02:36:41;0.93;;;0.47;;
26562;SDS011;14217;50.986;5.826;2023-07-24T02:41:43;0.85;;;0.60;;
26562;SDS011;14217;50.986;5.826;2023-07-24T02:46:45;0.30;;;0.30;;
26562;SDS011;14217;50.986;5.826;2023-07-24T02:51:47;0.60;;;0.60;;
26562;SDS011;14217;50.986;5.826;2023-07-24T02:56:51;0.45;;;0.40;;
26562;SDS011;14217;50.986;5.826;2023-07-24T03:01:53;0.50;;;0.50;;
26562;SDS011;14217;50.986;5.826;2023-07-24T03:06:55;0.63;;;0.50;;
26562;SDS011;14217;50.986;5.826;2023-07-24T03:11:57;1.83;;;0.60;;
26562;SDS011;14217;50.986;5.826;2023-07-24T03:16:59;0.90;;;0.77;;
26562;SDS011;14217;50.986;5.826;2023-07-24T03:22:03;0.30;;;0.30;;
26562;SDS011;14217;50.986;5.826;2023-07-24T03:27:05;0.20;;;0.20;;
26562;SDS011;14217;50.986;5.826;2023-07-24T03:32:07;0.50;;;0.50;;
26562;SDS011;14217;50.986;5.826;2023-07-24T03:37:10;0.90;;;0.57;;
26562;SDS011;14217;50.986;5.826;2023-07-24T03:42:12;0.68;;;0.60;;
26562;SDS011;14217;50.986;5.826;2023-07-24T03:47:14;0.95;;;0.70;;
26562;SDS011;14217;50.986;5.826;2023-07-24T03:52:16;0.70;;;0.70;;
26562;SDS011;14217;50.986;5.826;2023-07-24T03:57:18;0.65;;;0.60;;
26562;SDS011;14217;50.986;5.826;2023-07-24T04:02:20;0.85;;;0.40;;
26562;SDS011;14217;50.986;5.826;2023-07-24T04:07:22;1.05;;;0.68;;
26562;SDS011;14217;50.986;5.826;2023-07-24T04:12:24;1.23;;;0.52;;
26562;SDS011;14217;50.986;5.826;2023-07-24T04:17:26;1.40;;;0.80;;
26562;SDS011;14217;50.986;5.826;2023-07-24T04:22:28;1.02;;;0.80;;
26562;SDS011;14217;50.986;5.826;2023-07-24T04:27:30;0.80;;;0.70;;
26562;SDS011;14217;50.986;5.826;2023-07-24T04:32:32;0.70;;;0.70;;
26562;SDS011;14217;50.986;5.826;2023-07-24T04:37:34;0.43;;;0.43;;
26562;SDS011;14217;50.986;5.826;2023-07-24T04:42:36;0.73;;;0.63;;
26562;SDS011;14217;50.986;5.826;2023-07-24T04:47:39;1.70;;;0.77;;
26562;SDS011;14217;50.986;5.826;2023-07-24T04:52:41;0.73;;;0.65;;
26562;SDS011;14217;50.986;5.826;2023-07-24T04:57:43;0.50;;;0.50;;
26562;SDS011;14217;50.986;5.826;2023-07-24T05:02:45;0.85;;;0.70;;
26562;SDS011;14217;50.986;5.826;2023-07-24T05:07:47;0.57;;;0.57;;
26562;SDS011;14217;50.986;5.826;2023-07-24T05:12:49;0.63;;;0.50;;
26562;SDS011;14217;50.986;5.826;2023-07-24T05:17:51;8.15;;;1.08;;
26562;SDS011;14217;50.986;5.826;2023-07-24T05:22:53;1.80;;;1.20;;
26562;SDS011;14217;50.986;5.826;2023-07-24T05:27:55;1.90;;;1.13;;
26562;SDS011;14217;50.986;5.826;2023-07-24T05:32:57;2.08;;;1.45;;
26562;SDS011;14217;50.986;5.826;2023-07-24T05:37:59;1.17;;;0.93;;
26562;SDS011;14217;50.986;5.826;2023-07-24T05:43:01;1.30;;;1.10;;
26562;SDS011;14217;50.986;5.826;2023-07-24T05:48:03;3.83;;;1.33;;
26562;SDS011;14217;50.986;5.826;2023-07-24T05:53:05;3.28;;;1.63;;
26562;SDS011;14217;50.986;5.826;2023-07-24T05:58:07;10.10;;;1.33;;
26562;SDS011;14217;50.986;5.826;2023-07-24T06:03:09;1.65;;;1.20;;
26562;SDS011;14217;50.986;5.826;2023-07-24T06:08:11;8.50;;;1.27;;
26562;SDS011;14217;50.986;5.826;2023-07-24T06:13:14;11.30;;;1.17;;
26562;SDS011;14217;50.986;5.826;2023-07-24T06:18:17;2.72;;;1.20;;
26562;SDS011;14217;50.986;5.826;2023-07-24T06:23:20;1.92;;;1.25;;
26562;SDS011;14217;50.986;5.826;2023-07-24T06:28:22;1.90;;;1.17;;
26562;SDS011;14217;50.986;5.826;2023-07-24T06:33:24;2.00;;;1.00;;
26562;SDS011;14217;50.986;5.826;2023-07-24T06:38:26;1.38;;;0.98;;
26562;SDS011;14217;50.986;5.826;2023-07-24T06:43:28;4.10;;;1.23;;
26562;SDS011;14217;50.986;5.826;2023-07-24T06:48:30;10.75;;;1.52;;
26562;SDS011;14217;50.986;5.826;2023-07-24T06:53:32;2.45;;;1.00;;
26562;SDS011;14217;50.986;5.826;2023-07-24T06:58:34;1.98;;;1.10;;
26562;SDS011;14217;50.986;5.826;2023-07-24T07:03:36;1.15;;;0.90;;
26562;SDS011;14217;50.986;5.826;2023-07-24T07:08:38;2.65;;;0.98;;
26562;SDS011;14217;50.986;5.826;2023-07-24T07:13:41;2.63;;;1.02;;
26562;SDS011;14217;50.986;5.826;2023-07-24T07:18:43;1.85;;;1.17;;
26562;SDS011;14217;50.986;5.826;2023-07-24T07:23:46;1.35;;;0.95;;
26562;SDS011;14217;50.986;5.826;2023-07-24T07:28:48;1.20;;;1.10;;
26562;SDS011;14217;50.986;5.826;2023-07-24T07:33:50;1.58;;;0.73;;
26562;SDS011;14217;50.986;5.826;2023-07-24T07:38:52;1.80;;;1.33;;
26562;SDS011;14217;50.986;5.826;2023-07-24T07:43:54;5.18;;;1.15;;
26562;SDS011;14217;50.986;5.826;2023-07-24T07:48:57;3.40;;;1.92;;
26562;SDS011;14217;50.986;5.826;2023-07-24T07:53:59;2.13;;;1.17;;
26562;SDS011;14217;50.986;5.826;2023-07-24T07:59:01;1.50;;;1.27;;
26562;SDS011;14217;50.986;5.826;2023-07-24T08:04:03;1.27;;;1.00;;
26562;SDS011;14217;50.986;5.826;2023-07-24T08:09:05;7.97;;;1.33;;
26562;SDS011;14217;50.986;5.826;2023-07-24T08:14:07;4.57;;;2.17;;
26562;SDS011;14217;50.986;5.826;2023-07-24T08:19:09;3.92;;;2.13;;
26562;SDS011;14217;50.986;5.826;2023-07-24T08:24:11;4.28;;;1.52;;
26562;SDS011;14217;50.986;5.826;2023-07-24T08:29:13;11.70;;;1.98;;
26562;SDS011;14217;50.986;5.826;2023-07-24T08:34:15;7.80;;;1.80;;
26562;SDS011;14217;50.986;5.826;2023-07-24T08:39:18;4.10;;;1.33;;
26562;SDS011;14217;50.986;5.826;2023-07-24T08:44:20;3.97;;;1.45;;
26562;SDS011;14217;50.986;5.826;2023-07-24T08:49:22;1.20;;;0.93;;
26562;SDS011;14217;50.986;5.826;2023-07-24T08:54:24;1.70;;;1.15;;
26562;SDS011;14217;50.986;5.826;2023-07-24T08:59:28;2.53;;;1.52;;
26562;SDS011;14217;50.986;5.826;2023-07-24T09:04:34;1.30;;;0.93;;
26562;SDS011;14217;50.986;5.826;2023-07-24T09:09:39;0.80;;;0.80;;
26562;SDS011;14217;50.986;5.826;2023-07-24T09:14:41;1.13;;;1.02;;
26562;SDS011;14217;50.986;5.826;2023-07-24T09:19:43;1.92;;;1.15;;
26562;SDS011;14217;50.986;5.826;2023-07-24T09:24:53;0.80;;;0.80;;
26562;SDS011;14217;50.986;5.826;2023-07-24T09:29:56;1.30;;;1.13;;
26562;SDS011;14217;50.986;5.826;2023-07-24T09:34:58;1.42;;;1.00;;
26562;SDS011;14217;50.986;5.826;2023-07-24T09:40:03;5.65;;;0.95;;
26562;SDS011;14217;50.986;5.826;2023-07-24T09:45:05;1.27;;;0.93;;
26562;SDS011;14217;50.986;5.826;2023-07-24T09:50:09;1.20;;;1.08;;
26562;SDS011;14217;50.986;5.826;2023-07-24T09:55:15;0.80;;;0.70;;
26562;SDS011;14217;50.986;5.826;2023-07-24T10:00:23;0.80;;;0.80;;
26562;SDS011;14217;50.986;5.826;2023-07-24T10:05:25;1.27;;;0.80;;
26562;SDS011;14217;50.986;5.826;2023-07-24T10:10:29;2.80;;;1.10;;
26562;SDS011;14217;50.986;5.826;2023-07-24T10:15:34;1.95;;;0.88;;
26562;SDS011;14217;50.986;5.826;2023-07-24T10:20:38;5.47;;;1.13;;
26562;SDS011;14217;50.986;5.826;2023-07-24T10:25:44;0.70;;;0.68;;
26562;SDS011;14217;50.986;5.826;2023-07-24T10:30:54;1.13;;;1.00;;
26562;SDS011;14217;50.986;5.826;2023-07-24T10:36:08;1.00;;;0.90;;
26562;SDS011;14217;50.986;5.826;2023-07-24T10:41:12;0.68;;;0.68;;
26562;SDS011;14217;50.986;5.826;2023-07-24T10:46:15;1.88;;;0.70;;
26562;SDS011;14217;50.986;5.826;2023-07-24T10:51:19;0.50;;;0.50;;
26562;SDS011;14217;50.986;5.826;2023-07-24T10:56:22;0.60;;;0.50;;
26562;SDS011;14217;50.986;5.826;2023-07-24T11:01:25;1.48;;;0.75;;
26562;SDS011;14217;50.986;5.826;2023-07-24T11:06:27;1.15;;;0.90;;
26562;SDS011;14217;50.986;5.826;2023-07-24T11:11:30;0.95;;;0.85;;
26562;SDS011;14217;50.986;5.826;2023-07-24T11:16:34;0.85;;;0.80;;
26562;SDS011;14217;50.986;5.826;2023-07-24T11:21:36;0.70;;;0.70;;
26562;SDS011;14217;50.986;5.826;2023-07-24T11:26:38;1.75;;;0.80;;
26562;SDS011;14217;50.986;5.826;2023-07-24T11:31:43;2.30;;;0.68;;
26562;SDS011;14217;50.986;5.826;2023-07-24T11:36:45;1.65;;;0.65;;
26562;SDS011;14217;50.986;5.826;2023-07-24T11:41:48;6.70;;;1.23;;
26562;SDS011;14217;50.986;5.826;2023-07-24T11:46:50;1.25;;;0.60;;
26562;SDS011;14217;50.986;5.826;2023-07-24T11:51:59;0.50;;;0.50;;
26562;SDS011;14217;50.986;5.826;2023-07-24T11:57:15;1.77;;;0.50;;
26562;SDS011;14217;50.986;5.826;2023-07-24T12:02:20;1.92;;;0.82;;
26562;SDS011;14217;50.986;5.826;2023-07-24T12:07:29;0.43;;;0.40;;
26562;SDS011;14217;50.986;5.826;2023-07-24T12:12:36;0.63;;;0.47;;
26562;SDS011;14217;50.986;5.826;2023-07-24T12:17:47;0.80;;;0.35;;
26562;SDS011;14217;50.986;5.826;2023-07-24T12:22:49;0.43;;;0.43;;
26562;SDS011;14217;50.986;5.826;2023-07-24T12:27:51;0.80;;;0.50;;
26562;SDS011;14217;50.986;5.826;2023-07-24T12:32:54;0.40;;;0.40;;
26562;SDS011;14217;50.986;5.826;2023-07-24T12:37:56;1.10;;;0.50;;
26562;SDS011;14217;50.986;5.826;2023-07-24T12:42:59;1.02;;;0.50;;
26562;SDS011;14217;50.986;5.826;2023-07-24T12:48:01;0.63;;;0.60;;
26562;SDS011;14217;50.986;5.826;2023-07-24T12:53:03;2.17;;;0.60;;
26562;SDS011;14217;50.986;5.826;2023-07-24T12:58:07;1.67;;;0.75;;
26562;SDS011;14217;50.986;5.826;2023-07-24T13:03:09;7.53;;;1.40;;
26562;SDS011;14217;50.986;5.826;2023-07-24T13:08:11;1.20;;;0.90;;
26562;SDS011;14217;50.986;5.826;2023-07-24T13:13:13;1.42;;;0.70;;
26562;SDS011;14217;50.986;5.826;2023-07-24T13:18:16;0.80;;;0.80;;
26562;SDS011;14217;50.986;5.826;2023-07-24T13:23:29;1.63;;;1.17;;
26562;SDS011;14217;50.986;5.826;2023-07-24T13:28:31;0.95;;;0.70;;
26562;SDS011;14217;50.986;5.826;2023-07-24T13:33:33;0.88;;;0.80;;
26562;SDS011;14217;50.986;5.826;2023-07-24T13:38:35;1.83;;;0.98;;
26562;SDS011;14217;50.986;5.826;2023-07-24T13:43:37;1.50;;;0.80;;
26562;SDS011;14217;50.986;5.826;2023-07-24T13:48:39;0.40;;;0.40;;
26562;SDS011;14217;50.986;5.826;2023-07-24T13:53:41;2.05;;;0.80;;
26562;SDS011;14217;50.986;5.826;2023-07-24T13:58:43;1.08;;;0.82;;
26562;SDS011;14217;50.986;5.826;2023-07-24T14:03:46;2.03;;;0.98;;
26562;SDS011;14217;50.986;5.826;2023-07-24T14:08:48;0.88;;;0.75;;
26562;SDS011;14217;50.986;5.826;2023-07-24T14:13:50;1.77;;;1.20;;
26562;SDS011;14217;50.986;5.826;2023-07-24T14:18:52;1.33;;;0.68;;
26562;SDS011;14217;50.986;5.826;2023-07-24T14:23:54;0.60;;;0.60;;
26562;SDS011;14217;50.986;5.826;2023-07-24T14:28:57;1.83;;;0.77;;
26562;SDS011;14217;50.986;5.826;2023-07-24T14:33:59;0.80;;;0.80;;
26562;SDS011;14217;50.986;5.826;2023-07-24T14:39:01;1.98;;;0.90;;
26562;SDS011;14217;50.986;5.826;2023-07-24T14:44:03;0.80;;;0.77;;
26562;SDS011;14217;50.986;5.826;2023-07-24T14:49:05;3.03;;;0.95;;
26562;SDS011;14217;50.986;5.826;2023-07-24T14:54:07;0.82;;;0.80;;
26562;SDS011;14217;50.986;5.826;2023-07-24T14:59:10;1.55;;;1.20;;
26562;SDS011;14217;50.986;5.826;2023-07-24T15:04:12;2.75;;;1.23;;
26562;SDS011;14217;50.986;5.826;2023-07-24T15:09:14;1.40;;;1.10;;
26562;SDS011;14217;50.986;5.826;2023-07-24T15:14:16;1.50;;;1.05;;
26562;SDS011;14217;50.986;5.826;2023-07-24T15:19:18;5.68;;;1.17;;
26562;SDS011;14217;50.986;5.826;2023-07-24T15:24:20;1.10;;;1.00;;
26562;SDS011;14217;50.986;5.826;2023-07-24T15:29:22;1.83;;;1.10;;
26562;SDS011;14217;50.986;5.826;2023-07-24T15:34:24;3.22;;;1.42;;
26562;SDS011;14217;50.986;5.826;2023-07-24T15:39:26;2.55;;;1.27;;
26562;SDS011;14217;50.986;5.826;2023-07-24T15:44:28;1.88;;;1.27;;
26562;SDS011;14217;50.986;5.826;2023-07-24T15:49:30;1.77;;;1.35;;
26562;SDS011;14217;50.986;5.826;2023-07-24T15:54:32;1.75;;;1.05;;
26562;SDS011;14217;50.986;5.826;2023-07-24T15:59:35;1.70;;;1.30;;
26562;SDS011;14217;50.986;5.826;2023-07-24T16:04:37;2.45;;;1.63;;
26562;SDS011;14217;50.986;5.826;2023-07-24T16:09:39;2.60;;;2.30;;
26562;SDS011;14217;50.986;5.826;2023-07-24T16:14:41;1.85;;;1.52;;
26562;SDS011;14217;50.986;5.826;2023-07-24T16:19:43;1.48;;;1.27;;
26562;SDS011;14217;50.986;5.826;2023-07-24T16:24:45;1.33;;;1.20;;
26562;SDS011;14217;50.986;5.826;2023-07-24T16:29:47;2.65;;;1.02;;
26562;SDS011;14217;50.986;5.826;2023-07-24T16:34:49;2.22;;;1.30;;
26562;SDS011;14217;50.986;5.826;2023-07-24T16:39:52;2.10;;;1.90;;
26562;SDS011;14217;50.986;5.826;2023-07-24T16:44:54;6.80;;;2.10;;
26562;SDS011;14217;50.986;5.826;2023-07-24T16:49:59;1.35;;;1.00;;
26562;SDS011;14217;50.986;5.826;2023-07-24T16:55:02;1.38;;;1.27;;
26562;SDS011;14217;50.986;5.826;2023-07-24T17:00:04;7.85;;;1.33;;
26562;SDS011;14217;50.986;5.826;2023-07-24T17:05:07;0.77;;;0.75;;
26562;SDS011;14217;50.986;5.826;2023-07-24T17:10:09;1.17;;;0.95;;
26562;SDS011;14217;50.986;5.826;2023-07-24T17:15:12;1.38;;;1.27;;
26562;SDS011;14217;50.986;5.826;2023-07-24T17:20:14;2.60;;;1.23;;
26562;SDS011;14217;50.986;5.826;2023-07-24T17:25:16;4.30;;;1.42;;
26562;SDS011;14217;50.986;5.826;2023-07-24T17:30:21;2.08;;;1.33;;
26562;SDS011;14217;50.986;5.826;2023-07-24T17:35:23;11.43;;;1.40;;
26562;SDS011;14217;50.986;5.826;2023-07-24T17:40:26;7.18;;;2.33;;
26562;SDS011;14217;50.986;5.826;2023-07-24T17:45:28;7.85;;;2.15;;
26562;SDS011;14217;50.986;5.826;2023-07-24T17:50:31;28.77;;;3.70;;
26562;SDS011;14217;50.986;5.826;2023-07-24T17:55:35;22.13;;;2.33;;
26562;SDS011;14217;50.986;5.826;2023-07-24T18:00:38;6.15;;;2.47;;
26562;SDS011;14217;50.986;5.826;2023-07-24T18:05:42;7.72;;;1.50;;
26562;SDS011;14217;50.986;5.826;2023-07-24T18:10:44;4.50;;;1.88;;
26562;SDS011;14217;50.986;5.826;2023-07-24T18:15:46;9.88;;;2.17;;
26562;SDS011;14217;50.986;5.826;2023-07-24T18:20:48;4.88;;;1.77;;
26562;SDS011;14217;50.986;5.826;2023-07-24T18:25:51;2.35;;;1.50;;
26562;SDS011;14217;50.986;5.826;2023-07-24T18:30:53;1.70;;;1.48;;
26562;SDS011;14217;50.986;5.826;2023-07-24T18:35:56;4.38;;;1.35;;
26562;SDS011;14217;50.986;5.826;2023-07-24T18:40:58;5.43;;;1.73;;
26562;SDS011;14217;50.986;5.826;2023-07-24T18:46:00;2.83;;;1.42;;
26562;SDS011;14217;50.986;5.826;2023-07-24T18:51:03;2.65;;;1.05;;
26562;SDS011;14217;50.986;5.826;2023-07-24T18:56:05;5.47;;;1.50;;
26562;SDS011;14217;50.986;5.826;2023-07-24T19:01:08;2.65;;;1.40;;
26562;SDS011;14217;50.986;5.826;2023-07-24T19:06:10;6.38;;;1.42;;
26562;SDS011;14217;50.986;5.826;2023-07-24T19:11:12;8.75;;;1.25;;
26562;SDS011;14217;50.986;5.826;2023-07-24T19:16:14;7.05;;;1.00;;
26562;SDS011;14217;50.986;5.826;2023-07-24T19:21:16;1.58;;;1.13;;
26562;SDS011;14217;50.986;5.826;2023-07-24T19:26:18;1.98;;;1.00;;
26562;SDS011;14217;50.986;5.826;2023-07-24T19:31:20;9.85;;;1.30;;
26562;SDS011;14217;50.986;5.826;2023-07-24T19:36:22;3.95;;;1.50;;
26562;SDS011;14217;50.986;5.826;2023-07-24T19:41:24;2.33;;;0.98;;
26562;SDS011;14217;50.986;5.826;2023-07-24T19:46:26;2.05;;;1.60;;
26562;SDS011;14217;50.986;5.826;2023-07-24T19:51:28;1.33;;;1.00;;
26562;SDS011;14217;50.986;5.826;2023-07-24T19:56:31;1.50;;;0.98;;
26562;SDS011;14217;50.986;5.826;2023-07-24T20:01:34;2.95;;;1.20;;
26562;SDS011;14217;50.986;5.826;2023-07-24T20:06:36;1.58;;;0.80;;
26562;SDS011;14217;50.986;5.826;2023-07-24T20:11:38;1.83;;;1.27;;
26562;SDS011;14217;50.986;5.826;2023-07-24T20:16:40;1.20;;;1.00;;
26562;SDS011;14217;50.986;5.826;2023-07-24T20:21:42;1.65;;;1.00;;
26562;SDS011;14217;50.986;5.826;2023-07-24T20:26:44;1.00;;;0.70;;
26562;SDS011;14217;50.986;5.826;2023-07-24T20:31:46;1.45;;;1.13;;
26562;SDS011;14217;50.986;5.826;2023-07-24T20:36:48;0.63;;;0.60;;
26562;SDS011;14217;50.986;5.826;2023-07-24T20:41:50;0.95;;;0.75;;
26562;SDS011;14217;50.986;5.826;2023-07-24T20:46:52;0.90;;;0.60;;
26562;SDS011;14217;50.986;5.826;2023-07-24T20:51:54;0.52;;;0.52;;
26562;SDS011;14217;50.986;5.826;2023-07-24T20:56:56;0.50;;;0.50;;
26562;SDS011;14217;50.986;5.826;2023-07-24T21:01:58;7.53;;;0.80;;
26562;SDS011;14217;50.986;5.826;2023-07-24T21:07:01;0.70;;;0.60;;
26562;SDS011;14217;50.986;5.826;2023-07-24T21:12:04;4.50;;;0.90;;
26562;SDS011;14217;50.986;5.826;2023-07-24T21:17:06;2.58;;;0.88;;
26562;SDS011;14217;50.986;5.826;2023-07-24T21:22:08;1.25;;;1.05;;
26562;SDS011;14217;50.986;5.826;2023-07-24T21:27:10;1.83;;;0.85;;
26562;SDS011;14217;50.986;5.826;2023-07-24T21:32:13;0.60;;;0.60;;
26562;SDS011;14217;50.986;5.826;2023-07-24T21:37:15;1.23;;;0.60;;
26562;SDS011;14217;50.986;5.826;2023-07-24T21:42:18;0.77;;;0.73;;
26562;SDS011;14217;50.986;5.826;2023-07-24T21:47:19;0.70;;;0.70;;
26562;SDS011;14217;50.986;5.826;2023-07-24T21:52:22;0.75;;;0.60;;
26562;SDS011;14217;50.986;5.826;2023-07-24T21:57:24;0.65;;;0.45;;
26562;SDS011;14217;50.986;5.826;2023-07-24T22:02:27;0.77;;;0.50;;
26562;SDS011;14217;50.986;5.826;2023-07-24T22:07:31;1.10;;;0.73;;
26562;SDS011;14217;50.986;5.826;2023-07-24T22:12:33;1.02;;;0.65;;
26562;SDS011;14217;50.986;5.826;2023-07-24T22:17:35;1.30;;;0.50;;
26562;SDS011;14217;50.986;5.826;2023-07-24T22:22:37;0.30;;;0.30;;
26562;SDS011;14217;50.986;5.826;2023-07-24T22:27:40;0.70;;;0.60;;
26562;SDS011;14217;50.986;5.826;2023-07-24T22:32:42;0.60;;;0.60;;
26562;SDS011;14217;50.986;5.826;2023-07-24T22:37:44;1.10;;;0.50;;
26562;SDS011;14217;50.986;5.826;2023-07-24T22:42:46;1.65;;;0.85;;
26562;SDS011;14217;50.986;5.826;2023-07-24T22:47:48;3.38;;;0.93;;
26562;SDS011;14217;50.986;5.826;2023-07-24T22:52:50;0.93;;;0.40;;
26562;SDS011;14217;50.986;5.826;2023-07-24T22:57:53;0.88;;;0.60;;
26562;SDS011;14217;50.986;5.826;2023-07-24T23:02:57;0.40;;;0.40;;
26562;SDS011;14217;50.986;5.826;2023-07-24T23:07:59;0.30;;;0.30;;
26562;SDS011;14217;50.986;5.826;2023-07-24T23:13:02;0.30;;;0.30;;
26562;SDS011;14217;50.986;5.826;2023-07-24T23:18:04;1.23;;;0.22;;
26562;SDS011;14217;50.986;5.826;2023-07-24T23:23:06;0.75;;;0.30;;
26562;SDS011;14217;50.986;5.826;2023-07-24T23:28:08;0.80;;;0.50;;
26562;SDS011;14217;50.986;5.826;2023-07-24T23:33:10;0.30;;;0.30;;
26562;SDS011;14217;50.986;5.826;2023-07-24T23:38:12;0.52;;;0.50;;
26562;SDS011;14217;50.986;5.826;2023-07-24T23:43:14;0.30;;;0.30;;
26562;SDS011;14217;50.986;5.826;2023-07-24T23:48:16;1.33;;;0.40;;
26562;SDS011;14217;50.986;5.826;2023-07-24T23:53:18;0.88;;;0.38;;
26562;SDS011;14217;50.986;5.826;2023-07-24T23:58:20;0.20;;;0.20;;
